sensor_id;sensor_type;location;lat;lon;timestamp;P1;durP1;ratioP1;P2;durP2;ratioP2
16612;SDS011;8419;52.358;9.752;2023-07-29T00:02:36;1.95;;;1.40;;
16612;SDS011;8419;52.358;9.752;2023-07-29T00:05:22;2.17;;;1.85;;
16612;SDS011;8419;52.358;9.752;2023-07-29T00:08:07;2.25;;;1.60;;
16612;SDS011;8419;52.358;9.752;2023-07-29T00:10:53;2.08;;;1.70;;
16612;SDS011;8419;52.358;9.752;2023-07-29T00:13:38;1.50;;;1.40;;
16612;SDS011;8419;52.358;9.752;2023-07-29T00:16:24;2.15;;;1.30;;
16612;SDS011;8419;52.358;9.752;2023-07-29T00:19:10;2.60;;;1.40;;
16612;SDS011;8419;52.358;9.752;2023-07-29T00:21:55;1.90;;;1.70;;
16612;SDS011;8419;52.358;9.752;2023-07-29T00:24:41;1.65;;;1.40;;
16612;SDS011;8419;52.358;9.752;2023-07-29T00:27:27;1.87;;;1.65;;
16612;SDS011;8419;52.358;9.752;2023-07-29T00:30:13;1.95;;;1.67;;
16612;SDS011;8419;52.358;9.752;2023-07-29T00:33:00;3.90;;;1.70;;
16612;SDS011;8419;52.358;9.752;2023-07-29T00:35:45;1.98;;;1.62;;
16612;SDS011;8419;52.358;9.752;2023-07-29T00:38:30;2.15;;;1.62;;
16612;SDS011;8419;52.358;9.752;2023-07-29T00:41:16;1.37;;;1.27;;
16612;SDS011;8419;52.358;9.752;2023-07-29T00:44:02;1.98;;;1.45;;
16612;SDS011;8419;52.358;9.752;2023-07-29T00:46:48;1.52;;;1.40;;
16612;SDS011;8419;52.358;9.752;2023-07-29T00:49:36;1.73;;;1.37;;
16612;SDS011;8419;52.358;9.752;2023-07-29T00:52:22;3.42;;;1.60;;
16612;SDS011;8419;52.358;9.752;2023-07-29T00:55:08;1.58;;;1.48;;
16612;SDS011;8419;52.358;9.752;2023-07-29T00:57:54;1.62;;;1.52;;
16612;SDS011;8419;52.358;9.752;2023-07-29T01:00:40;1.75;;;1.65;;
16612;SDS011;8419;52.358;9.752;2023-07-29T01:03:26;1.85;;;1.20;;
16612;SDS011;8419;52.358;9.752;2023-07-29T01:06:14;2.12;;;1.60;;
16612;SDS011;8419;52.358;9.752;2023-07-29T01:09:07;5.47;;;1.55;;
16612;SDS011;8419;52.358;9.752;2023-07-29T01:12:01;1.73;;;1.45;;
16612;SDS011;8419;52.358;9.752;2023-07-29T01:14:55;2.00;;;1.80;;
16612;SDS011;8419;52.358;9.752;2023-07-29T01:17:52;1.75;;;1.35;;
16612;SDS011;8419;52.358;9.752;2023-07-29T01:20:42;1.70;;;1.58;;
16612;SDS011;8419;52.358;9.752;2023-07-29T01:23:31;1.87;;;1.62;;
16612;SDS011;8419;52.358;9.752;2023-07-29T01:26:18;2.37;;;1.62;;
16612;SDS011;8419;52.358;9.752;2023-07-29T01:29:04;3.22;;;1.48;;
16612;SDS011;8419;52.358;9.752;2023-07-29T01:31:50;1.73;;;1.50;;
16612;SDS011;8419;52.358;9.752;2023-07-29T01:34:46;2.10;;;1.60;;
16612;SDS011;8419;52.358;9.752;2023-07-29T01:37:38;1.60;;;1.50;;
16612;SDS011;8419;52.358;9.752;2023-07-29T01:40:26;2.60;;;1.55;;
16612;SDS011;8419;52.358;9.752;2023-07-29T01:43:12;1.73;;;1.60;;
16612;SDS011;8419;52.358;9.752;2023-07-29T01:45:58;1.85;;;1.33;;
16612;SDS011;8419;52.358;9.752;2023-07-29T01:48:44;2.58;;;1.58;;
16612;SDS011;8419;52.358;9.752;2023-07-29T01:51:32;1.83;;;1.60;;
16612;SDS011;8419;52.358;9.752;2023-07-29T01:54:18;1.92;;;1.70;;
16612;SDS011;8419;52.358;9.752;2023-07-29T01:57:04;1.75;;;1.27;;
16612;SDS011;8419;52.358;9.752;2023-07-29T01:59:50;1.67;;;1.58;;
16612;SDS011;8419;52.358;9.752;2023-07-29T02:02:36;2.10;;;1.73;;
16612;SDS011;8419;52.358;9.752;2023-07-29T02:05:21;2.10;;;1.90;;
16612;SDS011;8419;52.358;9.752;2023-07-29T02:08:07;2.30;;;1.80;;
16612;SDS011;8419;52.358;9.752;2023-07-29T02:10:53;1.60;;;1.50;;
16612;SDS011;8419;52.358;9.752;2023-07-29T02:13:38;1.35;;;1.25;;
16612;SDS011;8419;52.358;9.752;2023-07-29T02:16:24;2.12;;;1.70;;
16612;SDS011;8419;52.358;9.752;2023-07-29T02:19:09;2.08;;;1.50;;
16612;SDS011;8419;52.358;9.752;2023-07-29T02:21:55;1.85;;;1.65;;
16612;SDS011;8419;52.358;9.752;2023-07-29T02:24:41;1.90;;;1.55;;
16612;SDS011;8419;52.358;9.752;2023-07-29T02:27:26;1.92;;;1.62;;
16612;SDS011;8419;52.358;9.752;2023-07-29T02:30:12;4.35;;;1.77;;
16612;SDS011;8419;52.358;9.752;2023-07-29T02:32:58;1.20;;;1.10;;
16612;SDS011;8419;52.358;9.752;2023-07-29T02:35:45;1.30;;;1.20;;
16612;SDS011;8419;52.358;9.752;2023-07-29T02:38:31;3.17;;;1.25;;
16612;SDS011;8419;52.358;9.752;2023-07-29T02:41:16;1.50;;;1.40;;
16612;SDS011;8419;52.358;9.752;2023-07-29T02:44:02;1.62;;;1.48;;
16612;SDS011;8419;52.358;9.752;2023-07-29T02:46:49;1.60;;;1.30;;
16612;SDS011;8419;52.358;9.752;2023-07-29T02:49:36;1.65;;;1.55;;
16612;SDS011;8419;52.358;9.752;2023-07-29T02:52:22;1.45;;;1.23;;
16612;SDS011;8419;52.358;9.752;2023-07-29T02:55:08;1.60;;;1.50;;
16612;SDS011;8419;52.358;9.752;2023-07-29T02:57:54;1.45;;;1.35;;
16612;SDS011;8419;52.358;9.752;2023-07-29T03:00:39;4.55;;;1.50;;
16612;SDS011;8419;52.358;9.752;2023-07-29T03:03:27;1.60;;;1.23;;
16612;SDS011;8419;52.358;9.752;2023-07-29T03:06:13;1.40;;;1.30;;
16612;SDS011;8419;52.358;9.752;2023-07-29T03:09:02;3.25;;;1.27;;
16612;SDS011;8419;52.358;9.752;2023-07-29T03:11:48;1.50;;;1.25;;
16612;SDS011;8419;52.358;9.752;2023-07-29T03:14:35;1.70;;;1.40;;
16612;SDS011;8419;52.358;9.752;2023-07-29T03:17:21;4.05;;;1.48;;
16612;SDS011;8419;52.358;9.752;2023-07-29T03:20:07;1.30;;;1.20;;
16612;SDS011;8419;52.358;9.752;2023-07-29T03:22:53;1.77;;;1.35;;
16612;SDS011;8419;52.358;9.752;2023-07-29T03:25:39;4.45;;;1.60;;
16612;SDS011;8419;52.358;9.752;2023-07-29T03:28:25;1.20;;;1.10;;
16612;SDS011;8419;52.358;9.752;2023-07-29T03:31:12;1.98;;;1.77;;
16612;SDS011;8419;52.358;9.752;2023-07-29T03:33:58;1.30;;;1.20;;
16612;SDS011;8419;52.358;9.752;2023-07-29T03:36:44;1.45;;;1.35;;
16612;SDS011;8419;52.358;9.752;2023-07-29T03:39:32;1.77;;;1.27;;
16612;SDS011;8419;52.358;9.752;2023-07-29T03:42:18;3.05;;;1.30;;
16612;SDS011;8419;52.358;9.752;2023-07-29T03:45:05;1.30;;;1.20;;
16612;SDS011;8419;52.358;9.752;2023-07-29T03:47:51;1.37;;;1.27;;
16612;SDS011;8419;52.358;9.752;2023-07-29T03:50:37;1.65;;;1.42;;
16612;SDS011;8419;52.358;9.752;2023-07-29T03:53:22;1.25;;;1.15;;
16612;SDS011;8419;52.358;9.752;2023-07-29T03:56:08;1.60;;;1.50;;
16612;SDS011;8419;52.358;9.752;2023-07-29T03:58:57;2.40;;;1.40;;
16612;SDS011;8419;52.358;9.752;2023-07-29T04:01:48;1.70;;;1.40;;
16612;SDS011;8419;52.358;9.752;2023-07-29T04:04:34;3.40;;;1.30;;
16612;SDS011;8419;52.358;9.752;2023-07-29T04:07:19;1.55;;;1.45;;
16612;SDS011;8419;52.358;9.752;2023-07-29T04:10:06;1.48;;;1.35;;
16612;SDS011;8419;52.358;9.752;2023-07-29T04:12:54;1.50;;;1.33;;
16612;SDS011;8419;52.358;9.752;2023-07-29T04:15:40;2.33;;;1.15;;
16612;SDS011;8419;52.358;9.752;2023-07-29T04:18:25;1.50;;;1.12;;
16612;SDS011;8419;52.358;9.752;2023-07-29T04:21:10;2.17;;;1.40;;
16612;SDS011;8419;52.358;9.752;2023-07-29T04:23:56;1.60;;;1.42;;
16612;SDS011;8419;52.358;9.752;2023-07-29T04:26:42;1.87;;;1.50;;
16612;SDS011;8419;52.358;9.752;2023-07-29T04:29:28;1.92;;;1.30;;
16612;SDS011;8419;52.358;9.752;2023-07-29T04:32:14;1.55;;;1.45;;
16612;SDS011;8419;52.358;9.752;2023-07-29T04:34:59;1.73;;;1.58;;
16612;SDS011;8419;52.358;9.752;2023-07-29T04:37:45;2.35;;;1.80;;
16612;SDS011;8419;52.358;9.752;2023-07-29T04:40:32;2.67;;;1.73;;
16612;SDS011;8419;52.358;9.752;2023-07-29T04:43:18;1.62;;;1.50;;
16612;SDS011;8419;52.358;9.752;2023-07-29T04:46:06;1.95;;;1.60;;
16612;SDS011;8419;52.358;9.752;2023-07-29T04:48:52;1.60;;;1.42;;
16612;SDS011;8419;52.358;9.752;2023-07-29T04:51:38;1.60;;;1.50;;
16612;SDS011;8419;52.358;9.752;2023-07-29T04:54:23;2.15;;;1.52;;
16612;SDS011;8419;52.358;9.752;2023-07-29T04:57:09;1.77;;;1.62;;
16612;SDS011;8419;52.358;9.752;2023-07-29T04:59:54;2.03;;;1.83;;
16612;SDS011;8419;52.358;9.752;2023-07-29T05:02:40;1.80;;;1.30;;
16612;SDS011;8419;52.358;9.752;2023-07-29T05:05:26;1.98;;;1.50;;
16612;SDS011;8419;52.358;9.752;2023-07-29T05:08:11;1.60;;;1.50;;
16612;SDS011;8419;52.358;9.752;2023-07-29T05:10:57;1.60;;;1.40;;
16612;SDS011;8419;52.358;9.752;2023-07-29T05:13:43;1.70;;;1.58;;
16612;SDS011;8419;52.358;9.752;2023-07-29T05:16:28;1.65;;;1.55;;
16612;SDS011;8419;52.358;9.752;2023-07-29T05:19:14;1.77;;;1.48;;
16612;SDS011;8419;52.358;9.752;2023-07-29T05:22:00;1.75;;;1.65;;
16612;SDS011;8419;52.358;9.752;2023-07-29T05:24:45;1.75;;;1.65;;
16612;SDS011;8419;52.358;9.752;2023-07-29T05:27:31;2.45;;;2.10;;
16612;SDS011;8419;52.358;9.752;2023-07-29T05:30:17;3.35;;;1.98;;
16612;SDS011;8419;52.358;9.752;2023-07-29T05:33:02;1.83;;;1.73;;
16612;SDS011;8419;52.358;9.752;2023-07-29T05:35:48;2.12;;;1.80;;
16612;SDS011;8419;52.358;9.752;2023-07-29T05:38:34;2.25;;;1.83;;
16612;SDS011;8419;52.358;9.752;2023-07-29T05:41:19;1.87;;;1.70;;
16612;SDS011;8419;52.358;9.752;2023-07-29T05:44:05;1.70;;;1.60;;
16612;SDS011;8419;52.358;9.752;2023-07-29T05:46:50;2.85;;;1.65;;
16612;SDS011;8419;52.358;9.752;2023-07-29T05:49:38;2.95;;;1.55;;
16612;SDS011;8419;52.358;9.752;2023-07-29T05:52:23;1.48;;;1.30;;
16612;SDS011;8419;52.358;9.752;2023-07-29T05:55:09;1.55;;;1.42;;
16612;SDS011;8419;52.358;9.752;2023-07-29T05:57:54;1.87;;;1.67;;
16612;SDS011;8419;52.358;9.752;2023-07-29T06:00:42;2.15;;;1.92;;
16612;SDS011;8419;52.358;9.752;2023-07-29T06:03:27;3.08;;;1.50;;
16612;SDS011;8419;52.358;9.752;2023-07-29T06:06:15;1.73;;;1.60;;
16612;SDS011;8419;52.358;9.752;2023-07-29T06:09:01;2.20;;;1.50;;
16612;SDS011;8419;52.358;9.752;2023-07-29T06:11:46;3.72;;;1.50;;
16612;SDS011;8419;52.358;9.752;2023-07-29T06:14:32;4.32;;;1.77;;
16612;SDS011;8419;52.358;9.752;2023-07-29T06:17:18;2.80;;;1.92;;
16612;SDS011;8419;52.358;9.752;2023-07-29T06:20:05;2.12;;;1.92;;
16612;SDS011;8419;52.358;9.752;2023-07-29T06:22:51;2.75;;;1.98;;
16612;SDS011;8419;52.358;9.752;2023-07-29T06:25:37;1.62;;;1.52;;
16612;SDS011;8419;52.358;9.752;2023-07-29T06:28:24;2.28;;;1.70;;
16612;SDS011;8419;52.358;9.752;2023-07-29T06:31:09;3.62;;;1.80;;
16612;SDS011;8419;52.358;9.752;2023-07-29T06:33:55;2.20;;;2.00;;
16612;SDS011;8419;52.358;9.752;2023-07-29T06:36:40;6.68;;;1.83;;
16612;SDS011;8419;52.358;9.752;2023-07-29T06:39:26;2.03;;;1.80;;
16612;SDS011;8419;52.358;9.752;2023-07-29T06:42:11;2.17;;;2.00;;
16612;SDS011;8419;52.358;9.752;2023-07-29T06:44:57;2.03;;;1.75;;
16612;SDS011;8419;52.358;9.752;2023-07-29T06:47:43;2.47;;;1.58;;
16612;SDS011;8419;52.358;9.752;2023-07-29T06:50:29;2.00;;;1.67;;
16612;SDS011;8419;52.358;9.752;2023-07-29T06:53:14;2.97;;;1.80;;
16612;SDS011;8419;52.358;9.752;2023-07-29T06:56:01;2.50;;;1.55;;
16612;SDS011;8419;52.358;9.752;2023-07-29T06:58:49;3.55;;;1.77;;
16612;SDS011;8419;52.358;9.752;2023-07-29T07:01:35;1.70;;;1.60;;
16612;SDS011;8419;52.358;9.752;2023-07-29T07:04:20;3.53;;;1.70;;
16612;SDS011;8419;52.358;9.752;2023-07-29T07:07:06;3.03;;;1.55;;
16612;SDS011;8419;52.358;9.752;2023-07-29T07:09:52;2.08;;;1.35;;
16612;SDS011;8419;52.358;9.752;2023-07-29T07:12:37;2.10;;;1.90;;
16612;SDS011;8419;52.358;9.752;2023-07-29T07:15:22;4.62;;;1.70;;
16612;SDS011;8419;52.358;9.752;2023-07-29T07:18:08;2.45;;;2.08;;
16612;SDS011;8419;52.358;9.752;2023-07-29T07:20:54;2.40;;;1.42;;
16612;SDS011;8419;52.358;9.752;2023-07-29T07:23:40;2.47;;;1.50;;
16612;SDS011;8419;52.358;9.752;2023-07-29T07:26:26;1.80;;;1.50;;
16612;SDS011;8419;52.358;9.752;2023-07-29T07:29:11;3.12;;;1.75;;
16612;SDS011;8419;52.358;9.752;2023-07-29T07:31:57;2.33;;;1.85;;
16612;SDS011;8419;52.358;9.752;2023-07-29T07:34:43;1.40;;;1.30;;
16612;SDS011;8419;52.358;9.752;2023-07-29T07:37:29;3.00;;;1.33;;
16612;SDS011;8419;52.358;9.752;2023-07-29T07:40:14;1.98;;;1.73;;
16612;SDS011;8419;52.358;9.752;2023-07-29T07:43:00;2.00;;;1.85;;
16612;SDS011;8419;52.358;9.752;2023-07-29T07:45:46;1.50;;;1.40;;
16612;SDS011;8419;52.358;9.752;2023-07-29T07:48:32;3.95;;;1.80;;
16612;SDS011;8419;52.358;9.752;2023-07-29T07:51:18;1.83;;;1.52;;
16612;SDS011;8419;52.358;9.752;2023-07-29T07:54:07;3.47;;;1.60;;
16612;SDS011;8419;52.358;9.752;2023-07-29T07:56:53;2.55;;;1.65;;
16612;SDS011;8419;52.358;9.752;2023-07-29T07:59:40;1.40;;;1.30;;
16612;SDS011;8419;52.358;9.752;2023-07-29T08:02:26;1.67;;;1.27;;
16612;SDS011;8419;52.358;9.752;2023-07-29T08:05:12;2.30;;;1.52;;
16612;SDS011;8419;52.358;9.752;2023-07-29T08:07:58;2.08;;;1.45;;
16612;SDS011;8419;52.358;9.752;2023-07-29T08:10:43;4.55;;;2.55;;
16612;SDS011;8419;52.358;9.752;2023-07-29T08:13:29;2.67;;;1.37;;
16612;SDS011;8419;52.358;9.752;2023-07-29T08:16:15;2.22;;;1.52;;
16612;SDS011;8419;52.358;9.752;2023-07-29T08:19:01;1.83;;;1.17;;
16612;SDS011;8419;52.358;9.752;2023-07-29T08:21:48;1.55;;;1.35;;
16612;SDS011;8419;52.358;9.752;2023-07-29T08:24:36;2.05;;;1.80;;
16612;SDS011;8419;52.358;9.752;2023-07-29T08:27:21;1.50;;;1.40;;
16612;SDS011;8419;52.358;9.752;2023-07-29T08:30:08;2.35;;;2.08;;
16612;SDS011;8419;52.358;9.752;2023-07-29T08:32:56;2.35;;;1.92;;
16612;SDS011;8419;52.358;9.752;2023-07-29T08:35:42;2.90;;;2.00;;
16612;SDS011;8419;52.358;9.752;2023-07-29T08:38:28;2.72;;;1.77;;
16612;SDS011;8419;52.358;9.752;2023-07-29T08:41:14;1.65;;;1.55;;
16612;SDS011;8419;52.358;9.752;2023-07-29T08:44:08;1.98;;;1.70;;
16612;SDS011;8419;52.358;9.752;2023-07-29T08:46:57;2.33;;;1.95;;
16612;SDS011;8419;52.358;9.752;2023-07-29T08:49:45;3.05;;;1.70;;
16612;SDS011;8419;52.358;9.752;2023-07-29T08:52:31;3.28;;;2.08;;
16612;SDS011;8419;52.358;9.752;2023-07-29T08:55:18;4.07;;;1.87;;
16612;SDS011;8419;52.358;9.752;2023-07-29T08:58:04;1.80;;;1.70;;
16612;SDS011;8419;52.358;9.752;2023-07-29T09:00:50;2.47;;;1.90;;
16612;SDS011;8419;52.358;9.752;2023-07-29T09:03:37;2.20;;;2.00;;
16612;SDS011;8419;52.358;9.752;2023-07-29T09:06:23;1.80;;;1.70;;
16612;SDS011;8419;52.358;9.752;2023-07-29T09:09:11;2.08;;;1.90;;
16612;SDS011;8419;52.358;9.752;2023-07-29T09:11:57;2.30;;;2.10;;
16612;SDS011;8419;52.358;9.752;2023-07-29T09:14:43;2.28;;;2.08;;
16612;SDS011;8419;52.358;9.752;2023-07-29T09:17:31;2.40;;;1.92;;
16612;SDS011;8419;52.358;9.752;2023-07-29T09:20:17;1.83;;;1.70;;
16612;SDS011;8419;52.358;9.752;2023-07-29T09:23:09;2.33;;;1.62;;
16612;SDS011;8419;52.358;9.752;2023-07-29T09:26:00;2.00;;;1.85;;
16612;SDS011;8419;52.358;9.752;2023-07-29T09:28:50;2.53;;;1.75;;
16612;SDS011;8419;52.358;9.752;2023-07-29T09:31:37;2.28;;;2.08;;
16612;SDS011;8419;52.358;9.752;2023-07-29T09:34:23;1.55;;;1.45;;
16612;SDS011;8419;52.358;9.752;2023-07-29T09:37:08;3.03;;;2.55;;
16612;SDS011;8419;52.358;9.752;2023-07-29T09:39:54;2.65;;;2.45;;
16612;SDS011;8419;52.358;9.752;2023-07-29T09:42:40;2.60;;;2.40;;
16612;SDS011;8419;52.358;9.752;2023-07-29T09:45:32;2.83;;;2.62;;
16612;SDS011;8419;52.358;9.752;2023-07-29T09:48:19;4.25;;;2.72;;
16612;SDS011;8419;52.358;9.752;2023-07-29T09:51:12;3.47;;;2.90;;
16612;SDS011;8419;52.358;9.752;2023-07-29T09:53:58;4.57;;;3.95;;
16612;SDS011;8419;52.358;9.752;2023-07-29T09:56:48;5.03;;;4.53;;
16612;SDS011;8419;52.358;9.752;2023-07-29T09:59:36;5.22;;;4.35;;
16612;SDS011;8419;52.358;9.752;2023-07-29T10:02:22;12.73;;;5.20;;
16612;SDS011;8419;52.358;9.752;2023-07-29T10:05:11;6.43;;;4.97;;
16612;SDS011;8419;52.358;9.752;2023-07-29T10:07:57;6.70;;;4.12;;
16612;SDS011;8419;52.358;9.752;2023-07-29T10:10:42;5.70;;;4.35;;
16612;SDS011;8419;52.358;9.752;2023-07-29T10:13:28;6.10;;;4.97;;
16612;SDS011;8419;52.358;9.752;2023-07-29T10:16:13;5.72;;;4.75;;
16612;SDS011;8419;52.358;9.752;2023-07-29T10:19:00;6.45;;;4.68;;
16612;SDS011;8419;52.358;9.752;2023-07-29T10:21:46;5.85;;;3.92;;
16612;SDS011;8419;52.358;9.752;2023-07-29T10:24:34;4.85;;;4.32;;
16612;SDS011;8419;52.358;9.752;2023-07-29T10:27:23;6.40;;;4.20;;
16612;SDS011;8419;52.358;9.752;2023-07-29T10:30:11;5.00;;;3.80;;
16612;SDS011;8419;52.358;9.752;2023-07-29T10:32:57;5.10;;;4.12;;
16612;SDS011;8419;52.358;9.752;2023-07-29T10:35:46;4.28;;;3.87;;
16612;SDS011;8419;52.358;9.752;2023-07-29T10:38:31;6.00;;;3.80;;
16612;SDS011;8419;52.358;9.752;2023-07-29T10:41:18;3.47;;;3.17;;
16612;SDS011;8419;52.358;9.752;2023-07-29T10:44:03;4.97;;;3.60;;
16612;SDS011;8419;52.358;9.752;2023-07-29T10:46:49;3.12;;;2.75;;
16612;SDS011;8419;52.358;9.752;2023-07-29T10:49:36;3.30;;;3.00;;
16612;SDS011;8419;52.358;9.752;2023-07-29T10:52:28;3.47;;;3.17;;
16612;SDS011;8419;52.358;9.752;2023-07-29T10:55:26;3.80;;;3.08;;
16612;SDS011;8419;52.358;9.752;2023-07-29T10:58:16;2.08;;;1.73;;
16612;SDS011;8419;52.358;9.752;2023-07-29T11:01:02;6.35;;;2.37;;
16612;SDS011;8419;52.358;9.752;2023-07-29T11:07:24;2.17;;;1.65;;
16612;SDS011;8419;52.358;9.752;2023-07-29T11:10:13;3.70;;;2.40;;
16612;SDS011;8419;52.358;9.752;2023-07-29T11:13:00;1.60;;;1.50;;
16612;SDS011;8419;52.358;9.752;2023-07-29T11:15:46;2.97;;;2.08;;
16612;SDS011;8419;52.358;9.752;2023-07-29T11:18:34;2.08;;;1.87;;
16612;SDS011;8419;52.358;9.752;2023-07-29T11:21:20;2.12;;;1.67;;
16612;SDS011;8419;52.358;9.752;2023-07-29T11:24:07;1.85;;;1.75;;
16612;SDS011;8419;52.358;9.752;2023-07-29T11:26:54;2.45;;;1.60;;
16612;SDS011;8419;52.358;9.752;2023-07-29T11:29:40;2.25;;;1.80;;
16612;SDS011;8419;52.358;9.752;2023-07-29T11:32:25;1.92;;;1.80;;
16612;SDS011;8419;52.358;9.752;2023-07-29T11:35:11;2.20;;;2.00;;
16612;SDS011;8419;52.358;9.752;2023-07-29T11:37:58;1.60;;;1.40;;
16612;SDS011;8419;52.358;9.752;2023-07-29T11:40:44;1.87;;;1.10;;
16612;SDS011;8419;52.358;9.752;2023-07-29T11:43:39;1.55;;;1.17;;
16612;SDS011;8419;52.358;9.752;2023-07-29T11:46:25;3.95;;;1.20;;
16612;SDS011;8419;52.358;9.752;2023-07-29T11:49:12;2.00;;;1.00;;
16612;SDS011;8419;52.358;9.752;2023-07-29T11:51:59;1.40;;;1.05;;
16612;SDS011;8419;52.358;9.752;2023-07-29T11:54:46;0.60;;;0.60;;
16612;SDS011;8419;52.358;9.752;2023-07-29T11:57:34;0.88;;;0.80;;
16612;SDS011;8419;52.358;9.752;2023-07-29T12:00:21;0.60;;;0.50;;
16612;SDS011;8419;52.358;9.752;2023-07-29T12:03:07;0.85;;;0.75;;
16612;SDS011;8419;52.358;9.752;2023-07-29T12:05:55;0.80;;;0.80;;
16612;SDS011;8419;52.358;9.752;2023-07-29T12:08:40;0.80;;;0.80;;
16612;SDS011;8419;52.358;9.752;2023-07-29T12:11:28;0.90;;;0.70;;
16612;SDS011;8419;52.358;9.752;2023-07-29T12:14:14;1.10;;;0.70;;
16612;SDS011;8419;52.358;9.752;2023-07-29T12:17:02;0.40;;;0.35;;
16612;SDS011;8419;52.358;9.752;2023-07-29T12:19:49;0.88;;;0.80;;
16612;SDS011;8419;52.358;9.752;2023-07-29T12:22:38;0.75;;;0.62;;
16612;SDS011;8419;52.358;9.752;2023-07-29T12:25:25;0.60;;;0.60;;
16612;SDS011;8419;52.358;9.752;2023-07-29T12:28:11;0.40;;;0.40;;
16612;SDS011;8419;52.358;9.752;2023-07-29T12:30:57;0.80;;;0.80;;
16612;SDS011;8419;52.358;9.752;2023-07-29T12:33:44;1.92;;;0.75;;
16612;SDS011;8419;52.358;9.752;2023-07-29T12:36:41;1.30;;;0.85;;
16612;SDS011;8419;52.358;9.752;2023-07-29T12:39:28;0.80;;;0.80;;
16612;SDS011;8419;52.358;9.752;2023-07-29T12:42:16;2.62;;;0.80;;
16612;SDS011;8419;52.358;9.752;2023-07-29T12:45:02;0.70;;;0.55;;
16612;SDS011;8419;52.358;9.752;2023-07-29T12:47:48;0.50;;;0.50;;
16612;SDS011;8419;52.358;9.752;2023-07-29T12:50:34;0.82;;;0.73;;
16612;SDS011;8419;52.358;9.752;2023-07-29T12:53:20;0.70;;;0.70;;
16612;SDS011;8419;52.358;9.752;2023-07-29T12:56:06;1.02;;;0.70;;
16612;SDS011;8419;52.358;9.752;2023-07-29T12:58:51;0.85;;;0.62;;
16612;SDS011;8419;52.358;9.752;2023-07-29T13:01:37;0.98;;;0.80;;
16612;SDS011;8419;52.358;9.752;2023-07-29T13:04:23;0.60;;;0.60;;
16612;SDS011;8419;52.358;9.752;2023-07-29T13:07:08;0.40;;;0.40;;
16612;SDS011;8419;52.358;9.752;2023-07-29T13:09:55;0.70;;;0.70;;
16612;SDS011;8419;52.358;9.752;2023-07-29T13:12:42;1.87;;;0.62;;
16612;SDS011;8419;52.358;9.752;2023-07-29T13:15:28;1.67;;;0.65;;
16612;SDS011;8419;52.358;9.752;2023-07-29T13:18:13;1.73;;;0.60;;
16612;SDS011;8419;52.358;9.752;2023-07-29T13:20:58;0.98;;;0.88;;
16612;SDS011;8419;52.358;9.752;2023-07-29T13:23:44;1.27;;;0.65;;
16612;SDS011;8419;52.358;9.752;2023-07-29T13:26:30;0.70;;;0.70;;
16612;SDS011;8419;52.358;9.752;2023-07-29T13:29:15;0.70;;;0.70;;
16612;SDS011;8419;52.358;9.752;2023-07-29T13:32:00;1.65;;;0.70;;
16612;SDS011;8419;52.358;9.752;2023-07-29T13:34:46;0.65;;;0.65;;
16612;SDS011;8419;52.358;9.752;2023-07-29T13:37:32;0.65;;;0.50;;
16612;SDS011;8419;52.358;9.752;2023-07-29T13:40:17;0.50;;;0.50;;
16612;SDS011;8419;52.358;9.752;2023-07-29T13:43:03;0.68;;;0.60;;
16612;SDS011;8419;52.358;9.752;2023-07-29T13:45:48;0.60;;;0.60;;
16612;SDS011;8419;52.358;9.752;2023-07-29T13:48:34;4.18;;;0.62;;
16612;SDS011;8419;52.358;9.752;2023-07-29T13:51:20;0.43;;;0.43;;
16612;SDS011;8419;52.358;9.752;2023-07-29T13:54:05;0.50;;;0.50;;
16612;SDS011;8419;52.358;9.752;2023-07-29T13:56:51;0.77;;;0.52;;
16612;SDS011;8419;52.358;9.752;2023-07-29T13:59:38;0.80;;;0.60;;
16612;SDS011;8419;52.358;9.752;2023-07-29T14:02:24;1.25;;;0.70;;
16612;SDS011;8419;52.358;9.752;2023-07-29T14:05:11;1.62;;;0.62;;
16612;SDS011;8419;52.358;9.752;2023-07-29T14:07:56;0.75;;;0.65;;
16612;SDS011;8419;52.358;9.752;2023-07-29T14:10:42;0.70;;;0.70;;
16612;SDS011;8419;52.358;9.752;2023-07-29T14:13:27;2.28;;;0.70;;
16612;SDS011;8419;52.358;9.752;2023-07-29T14:16:13;1.60;;;0.65;;
16612;SDS011;8419;52.358;9.752;2023-07-29T14:18:59;0.60;;;0.60;;
16612;SDS011;8419;52.358;9.752;2023-07-29T14:21:44;0.75;;;0.70;;
16612;SDS011;8419;52.358;9.752;2023-07-29T14:24:30;0.57;;;0.57;;
16612;SDS011;8419;52.358;9.752;2023-07-29T14:27:15;1.15;;;0.77;;
16612;SDS011;8419;52.358;9.752;2023-07-29T14:30:01;1.15;;;0.80;;
16612;SDS011;8419;52.358;9.752;2023-07-29T14:32:48;0.88;;;0.88;;
16612;SDS011;8419;52.358;9.752;2023-07-29T14:35:33;0.90;;;0.90;;
16612;SDS011;8419;52.358;9.752;2023-07-29T14:38:19;0.60;;;0.60;;
16612;SDS011;8419;52.358;9.752;2023-07-29T14:41:05;1.67;;;0.70;;
16612;SDS011;8419;52.358;9.752;2023-07-29T14:43:50;1.15;;;0.80;;
16612;SDS011;8419;52.358;9.752;2023-07-29T14:46:36;1.00;;;0.85;;
16612;SDS011;8419;52.358;9.752;2023-07-29T14:49:22;0.70;;;0.62;;
16612;SDS011;8419;52.358;9.752;2023-07-29T14:52:07;1.30;;;0.90;;
16612;SDS011;8419;52.358;9.752;2023-07-29T14:54:53;1.27;;;0.80;;
16612;SDS011;8419;52.358;9.752;2023-07-29T14:57:39;1.27;;;0.80;;
16612;SDS011;8419;52.358;9.752;2023-07-29T15:00:25;1.00;;;0.90;;
16612;SDS011;8419;52.358;9.752;2023-07-29T15:03:11;1.00;;;0.90;;
16612;SDS011;8419;52.358;9.752;2023-07-29T15:05:57;1.37;;;0.70;;
16612;SDS011;8419;52.358;9.752;2023-07-29T15:08:43;1.15;;;0.75;;
16612;SDS011;8419;52.358;9.752;2023-07-29T15:11:29;0.60;;;0.60;;
16612;SDS011;8419;52.358;9.752;2023-07-29T15:14:17;1.50;;;1.00;;
16612;SDS011;8419;52.358;9.752;2023-07-29T15:17:03;1.12;;;0.90;;
16612;SDS011;8419;52.358;9.752;2023-07-29T15:19:50;0.55;;;0.55;;
16612;SDS011;8419;52.358;9.752;2023-07-29T15:22:36;1.02;;;0.93;;
16612;SDS011;8419;52.358;9.752;2023-07-29T15:25:23;2.55;;;1.00;;
16612;SDS011;8419;52.358;9.752;2023-07-29T15:28:09;2.37;;;1.00;;
16612;SDS011;8419;52.358;9.752;2023-07-29T15:30:56;1.15;;;0.88;;
16612;SDS011;8419;52.358;9.752;2023-07-29T15:33:42;1.17;;;0.80;;
16612;SDS011;8419;52.358;9.752;2023-07-29T15:36:27;1.10;;;1.00;;
16612;SDS011;8419;52.358;9.752;2023-07-29T15:39:13;0.62;;;0.62;;
16612;SDS011;8419;52.358;9.752;2023-07-29T15:41:58;0.57;;;0.57;;
16612;SDS011;8419;52.358;9.752;2023-07-29T15:44:44;1.02;;;0.82;;
16612;SDS011;8419;52.358;9.752;2023-07-29T15:47:30;0.65;;;0.65;;
16612;SDS011;8419;52.358;9.752;2023-07-29T15:50:15;0.90;;;0.80;;
16612;SDS011;8419;52.358;9.752;2023-07-29T15:53:01;0.50;;;0.50;;
16612;SDS011;8419;52.358;9.752;2023-07-29T15:55:47;1.15;;;0.80;;
16612;SDS011;8419;52.358;9.752;2023-07-29T15:58:34;1.27;;;0.82;;
16612;SDS011;8419;52.358;9.752;2023-07-29T16:01:20;0.95;;;0.85;;
16612;SDS011;8419;52.358;9.752;2023-07-29T16:04:07;0.90;;;0.55;;
16612;SDS011;8419;52.358;9.752;2023-07-29T16:06:52;1.00;;;0.98;;
16612;SDS011;8419;52.358;9.752;2023-07-29T16:09:38;1.25;;;1.10;;
16612;SDS011;8419;52.358;9.752;2023-07-29T16:12:24;1.33;;;0.70;;
16612;SDS011;8419;52.358;9.752;2023-07-29T16:15:10;1.52;;;0.90;;
16612;SDS011;8419;52.358;9.752;2023-07-29T16:17:56;0.90;;;0.90;;
16612;SDS011;8419;52.358;9.752;2023-07-29T16:20:43;1.70;;;1.08;;
16612;SDS011;8419;52.358;9.752;2023-07-29T16:23:30;1.20;;;1.00;;
16612;SDS011;8419;52.358;9.752;2023-07-29T16:26:17;2.20;;;0.90;;
16612;SDS011;8419;52.358;9.752;2023-07-29T16:29:02;1.25;;;0.90;;
16612;SDS011;8419;52.358;9.752;2023-07-29T16:31:49;1.00;;;0.90;;
16612;SDS011;8419;52.358;9.752;2023-07-29T16:34:35;0.75;;;0.65;;
16612;SDS011;8419;52.358;9.752;2023-07-29T16:37:22;1.98;;;0.90;;
16612;SDS011;8419;52.358;9.752;2023-07-29T16:40:08;1.20;;;1.10;;
16612;SDS011;8419;52.358;9.752;2023-07-29T16:42:57;0.40;;;0.40;;
16612;SDS011;8419;52.358;9.752;2023-07-29T16:45:43;2.60;;;1.08;;
16612;SDS011;8419;52.358;9.752;2023-07-29T16:48:28;1.10;;;1.00;;
16612;SDS011;8419;52.358;9.752;2023-07-29T16:51:14;1.73;;;0.90;;
16612;SDS011;8419;52.358;9.752;2023-07-29T16:53:59;3.00;;;1.10;;
16612;SDS011;8419;52.358;9.752;2023-07-29T16:56:46;0.95;;;0.70;;
16612;SDS011;8419;52.358;9.752;2023-07-29T16:59:32;1.17;;;0.70;;
16612;SDS011;8419;52.358;9.752;2023-07-29T17:02:18;4.00;;;1.35;;